Time;durP1;ratioP1;P1;durP2;ratioP2;P2;SDS_P1;SDS_P2;PMS_P1;PMS_P2;Temp;Humidity;BMP_temperature;BMP_pressure;BME280_temperature;BME280_humidity;BME280_pressure;Samples;Min_cycle;Max_cycle;Signal;HPM_P1;HPM_P2
2023/06/11 00:02:00;;;;;;;4.23;3.87;;;28.10;63.60;;;;;;5068013;28;20204;-46
2023/06/11 00:04:34;;;;;;;4.40;4.00;;;28.10;63.50;;;;;;5044412;28;20218;-46
2023/06/11 00:07:05;;;;;;;4.30;4.00;;;28.10;64.20;;;;;;5061585;28;20232;-46
2023/06/11 00:09:35;;;;;;;4.27;3.87;;;28.00;63.60;;;;;;5059541;28;20190;-46
2023/06/11 00:12:06;;;;;;;5.03;3.97;;;28.10;63.50;;;;;;5070723;28;20181;-46
2023/06/11 00:14:38;;;;;;;3.80;3.50;;;28.00;63.50;;;;;;5076477;28;20274;-45
2023/06/11 00:17:10;;;;;;;4.13;3.83;;;28.00;63.20;;;;;;5085704;28;20609;-46
2023/06/11 00:19:40;;;;;;;5.03;3.70;;;28.00;63.50;;;;;;5051427;28;20209;-46
2023/06/11 00:22:14;;;;;;;4.33;3.70;;;28.00;63.10;;;;;;5077034;28;20293;-46
2023/06/11 00:24:53;;;;;;;3.77;3.47;;;28.00;63.20;;;;;;5084443;28;20212;-45
2023/06/11 00:27:22;;;;;;;4.13;3.80;;;28.00;63.10;;;;;;5069884;28;20262;-45
2023/06/11 00:29:54;;;;;;;3.90;3.60;;;28.00;62.90;;;;;;5085805;28;20669;-46
2023/06/11 00:32:33;;;;;;;4.30;3.90;;;28.00;63.20;;;;;;5056560;28;20186;-46
2023/06/11 00:35:08;;;;;;;3.97;3.67;;;27.90;62.80;;;;;;5074462;28;20663;-45
2023/06/11 00:37:43;;;;;;;4.00;3.70;;;28.00;62.70;;;;;;5071736;28;20782;-46
2023/06/11 00:40:14;;;;;;;4.03;3.60;;;27.90;62.50;;;;;;5098919;28;20201;-47
2023/06/11 00:42:49;;;;;;;4.33;3.97;;;28.00;62.50;;;;;;5086100;28;20213;-46
2023/06/11 00:45:24;;;;;;;4.33;3.70;;;27.90;62.40;;;;;;5091730;28;20196;-46
2023/06/11 00:47:56;;;;;;;5.60;3.90;;;27.90;62.50;;;;;;5046841;28;20610;-46
2023/06/11 00:50:28;;;;;;;4.20;3.90;;;27.90;62.50;;;;;;5091665;28;20231;-46
2023/06/11 00:52:58;;;;;;;4.00;3.70;;;27.90;62.50;;;;;;5070066;28;20250;-46
2023/06/11 00:55:31;;;;;;;4.57;3.40;;;27.90;62.30;;;;;;5090891;28;20197;-46
2023/06/11 00:58:02;;;;;;;3.70;3.40;;;27.90;62.40;;;;;;5091585;28;20258;-45
2023/06/11 01:00:51;;;;;;;4.20;3.90;;;27.90;62.20;;;;;;5088453;28;20697;-46
2023/06/11 01:03:27;;;;;;;4.30;4.00;;;27.90;62.30;;;;;;5074929;28;20221;-46
2023/06/11 01:06:24;;;;;;;4.10;3.70;;;27.90;62.10;;;;;;5071208;28;20273;-46
2023/06/11 01:08:59;;;;;;;5.07;3.60;;;27.90;62.10;;;;;;5071832;28;20192;-46
2023/06/11 01:11:32;;;;;;;4.00;3.60;;;27.90;62.00;;;;;;5091042;28;20196;-46
2023/06/11 01:14:05;;;;;;;4.17;3.87;;;27.90;62.70;;;;;;5088169;28;20702;-45
2023/06/11 01:17:04;;;;;;;4.50;3.87;;;27.90;62.00;;;;;;5077228;28;20638;-55
2023/06/11 01:20:18;;;;;;;4.00;3.63;;;27.90;62.00;;;;;;5087142;28;20538;-46
2023/06/11 01:23:41;;;;;;;3.77;3.47;;;27.90;61.90;;;;;;5087295;28;20208;-45
2023/06/11 01:26:46;;;;;;;4.07;3.73;;;27.80;61.50;;;;;;5007836;28;20596;-46
2023/06/11 01:29:37;;;;;;;3.70;3.30;;;27.80;61.60;;;;;;5003255;28;20219;-46
2023/06/11 01:32:27;;;;;;;3.80;3.50;;;27.80;61.40;;;;;;5002090;28;20212;-46
2023/06/11 01:35:05;;;;;;;4.10;3.80;;;27.80;61.40;;;;;;5006098;28;20203;-46
2023/06/11 01:37:59;;;;;;;5.47;3.90;;;27.80;60.90;;;;;;5067057;28;20312;-46
2023/06/11 01:40:44;;;;;;;3.77;3.47;;;27.80;61.00;;;;;;5082783;28;20228;-46
2023/06/11 01:43:12;;;;;;;3.90;3.60;;;27.80;60.80;;;;;;5091757;28;20197;-46
2023/06/11 01:45:43;;;;;;;4.20;3.90;;;27.80;60.70;;;;;;5074547;28;20205;-46
2023/06/11 01:48:12;;;;;;;3.77;3.47;;;27.80;60.70;;;;;;5078055;28;20235;-45
2023/06/11 01:50:43;;;;;;;4.00;3.60;;;27.80;60.60;;;;;;5084292;28;20210;-46
2023/06/11 01:53:12;;;;;;;4.10;3.80;;;27.80;60.40;;;;;;5063710;28;20213;-46
2023/06/11 01:55:44;;;;;;;4.40;4.00;;;27.80;60.40;;;;;;5074803;28;20213;-45
2023/06/11 01:58:16;;;;;;;4.77;4.20;;;27.80;60.20;;;;;;5082757;28;20204;-46
2023/06/11 02:00:47;;;;;;;4.70;3.87;;;27.70;60.20;;;;;;5015569;28;20206;-45
2023/06/11 02:03:18;;;;;;;3.93;3.60;;;27.80;60.10;;;;;;5085762;28;20514;-46
2023/06/11 02:05:48;;;;;;;4.07;3.60;;;27.80;60.10;;;;;;5075019;28;20232;-45
2023/06/11 02:08:21;;;;;;;3.90;3.60;;;27.70;59.90;;;;;;5091198;28;20634;-46
2023/06/11 02:10:50;;;;;;;4.73;4.33;;;27.70;59.80;;;;;;5088446;28;20830;-46
2023/06/11 02:13:21;;;;;;;4.20;3.80;;;27.70;59.90;;;;;;5073388;28;20209;-46
2023/06/11 02:15:53;;;;;;;4.20;3.87;;;27.70;59.80;;;;;;5073156;28;20197;-46
2023/06/11 02:18:25;;;;;;;4.40;4.00;;;27.70;59.60;;;;;;5072245;28;20532;-46
2023/06/11 02:20:56;;;;;;;6.03;3.87;;;27.70;59.50;;;;;;5071802;28;20185;-45
2023/06/11 02:23:31;;;;;;;5.37;4.40;;;27.70;59.40;;;;;;5088889;28;20560;-46
2023/06/11 02:26:02;;;;;;;5.77;4.53;;;27.70;59.40;;;;;;5090258;28;20709;-45
2023/06/11 02:28:32;;;;;;;4.90;4.17;;;27.70;59.30;;;;;;5072356;28;20181;-46
2023/06/11 02:31:02;;;;;;;5.83;4.00;;;27.70;59.40;;;;;;5092463;28;20213;-45
2023/06/11 02:33:33;;;;;;;4.10;3.80;;;27.70;59.10;;;;;;5093526;28;20199;-46
2023/06/11 02:36:04;;;;;;;4.57;4.13;;;27.70;59.00;;;;;;5091238;28;20212;-46
2023/06/11 02:38:37;;;;;;;4.83;4.40;;;27.60;58.80;;;;;;5089302;28;20527;-45
2023/06/11 02:41:07;;;;;;;5.03;4.37;;;27.60;58.80;;;;;;5070511;28;20212;-45
2023/06/11 02:43:41;;;;;;;4.80;4.23;;;27.60;58.80;;;;;;5096112;28;20280;-45
2023/06/11 02:46:13;;;;;;;4.37;3.97;;;27.60;58.60;;;;;;5093633;28;20236;-45
2023/06/11 02:48:44;;;;;;;5.13;4.73;;;27.60;58.60;;;;;;5086402;28;20643;-45
2023/06/11 02:51:15;;;;;;;4.43;4.03;;;27.60;58.60;;;;;;5088756;28;20192;-45
2023/06/11 02:53:47;;;;;;;4.87;4.47;;;27.60;58.50;;;;;;5090886;28;20209;-45
2023/06/11 02:56:19;;;;;;;4.80;4.40;;;27.60;58.50;;;;;;5081916;28;20194;-45
2023/06/11 02:58:47;;;;;;;4.90;4.50;;;27.60;58.60;;;;;;5077861;28;20283;-45
2023/06/11 03:01:16;;;;;;;4.80;4.40;;;27.60;58.50;;;;;;5094070;28;20208;-45
2023/06/11 03:03:48;;;;;;;4.40;4.10;;;27.60;58.50;;;;;;5092138;28;20192;-45
2023/06/11 03:06:18;;;;;;;5.47;4.83;;;27.60;58.30;;;;;;5069676;28;20229;-45
2023/06/11 03:08:49;;;;;;;4.30;3.90;;;27.60;58.30;;;;;;5088722;28;20246;-45
2023/06/11 03:11:20;;;;;;;6.07;4.80;;;27.60;58.20;;;;;;5089668;28;20197;-45
2023/06/11 03:13:51;;;;;;;5.23;4.80;;;27.50;58.10;;;;;;5072883;28;20260;-46
2023/06/11 03:16:20;;;;;;;5.00;4.50;;;27.50;58.00;;;;;;5089245;28;20200;-45
2023/06/11 03:18:52;;;;;;;4.53;4.20;;;27.50;58.10;;;;;;5083774;28;20461;-45
2023/06/11 03:21:25;;;;;;;4.60;4.23;;;27.50;58.00;;;;;;5089450;28;20201;-45
2023/06/11 03:23:57;;;;;;;4.70;4.30;;;27.50;58.00;;;;;;5089042;28;20200;-45
2023/06/11 03:26:27;;;;;;;5.20;4.70;;;27.50;57.90;;;;;;5081481;28;20673;-45
2023/06/11 03:28:56;;;;;;;4.87;4.47;;;27.50;57.80;;;;;;5085136;28;20196;-45
2023/06/11 03:31:33;;;;;;;5.13;4.73;;;27.50;57.70;;;;;;5077231;28;20195;-45
2023/06/11 03:34:04;;;;;;;5.00;4.60;;;27.50;57.80;;;;;;5089144;28;20201;-45
2023/06/11 03:36:33;;;;;;;5.23;4.73;;;27.50;57.70;;;;;;5087721;28;20216;-45
2023/06/11 03:39:01;;;;;;;4.53;4.23;;;27.50;57.70;;;;;;5091518;28;20676;-47
2023/06/11 03:41:29;;;;;;;4.50;4.20;;;27.40;57.60;;;;;;5076034;28;20212;-45
2023/06/11 03:43:58;;;;;;;5.17;4.67;;;27.40;57.60;;;;;;5089000;28;20260;-45
2023/06/11 03:46:28;;;;;;;4.97;4.57;;;27.40;57.60;;;;;;5069871;28;20252;-45
2023/06/11 03:49:19;;;;;;;5.10;4.63;;;27.40;57.60;;;;;;5079397;28;20185;-45
2023/06/11 03:51:49;;;;;;;6.30;5.20;;;27.40;57.40;;;;;;5083789;28;20212;-45
2023/06/11 03:54:22;;;;;;;6.07;4.80;;;27.40;57.40;;;;;;5087147;28;20702;-45
2023/06/11 03:56:58;;;;;;;5.20;4.73;;;27.40;57.70;;;;;;5067212;28;20433;-46
2023/06/11 03:59:40;;;;;;;5.63;5.07;;;27.40;57.20;;;;;;5066193;28;20243;-45
2023/06/11 04:02:11;;;;;;;5.50;5.00;;;27.40;57.30;;;;;;5085912;28;20409;-45
2023/06/11 04:04:41;;;;;;;5.80;5.20;;;27.40;57.30;;;;;;5083989;28;20203;-45
2023/06/11 04:07:13;;;;;;;5.57;5.07;;;27.40;57.20;;;;;;5074895;28;20223;-45
2023/06/11 04:09:41;;;;;;;5.60;5.10;;;27.40;57.00;;;;;;5082321;28;20223;-45
2023/06/11 04:12:11;;;;;;;5.37;4.87;;;27.40;57.00;;;;;;5082365;28;20196;-45
2023/06/11 04:14:43;;;;;;;5.40;4.93;;;27.40;56.80;;;;;;5097518;28;20193;-45
2023/06/11 04:17:13;;;;;;;5.50;5.00;;;27.40;56.90;;;;;;5079780;28;20637;-46
2023/06/11 04:19:44;;;;;;;5.77;5.07;;;27.40;57.00;;;;;;5097267;28;20289;-46
2023/06/11 04:22:16;;;;;;;5.30;4.90;;;27.30;56.80;;;;;;5086130;28;20281;-46
2023/06/11 04:24:45;;;;;;;5.47;4.97;;;27.30;56.70;;;;;;5097163;28;20181;-46
2023/06/11 04:27:15;;;;;;;5.23;4.80;;;27.40;56.80;;;;;;5095398;28;20281;-46
2023/06/11 04:29:45;;;;;;;5.37;4.87;;;27.40;56.80;;;;;;5077174;28;20205;-45
2023/06/11 04:32:20;;;;;;;6.93;5.23;;;27.30;56.70;;;;;;5093771;28;20200;-45
2023/06/11 04:34:56;;;;;;;5.83;5.03;;;27.30;56.70;;;;;;5091171;28;20200;-45
2023/06/11 04:37:30;;;;;;;5.50;5.00;;;27.30;57.30;;;;;;5099856;28;20205;-45
2023/06/11 04:40:10;;;;;;;5.70;5.20;;;27.30;56.60;;;;;;5100656;28;20212;-45
2023/06/11 04:42:46;;;;;;;5.50;5.00;;;27.30;56.60;;;;;;5087883;28;20219;-45
2023/06/11 04:45:20;;;;;;;5.90;5.40;;;27.30;56.50;;;;;;5075866;28;20201;-44
2023/06/11 04:47:51;;;;;;;6.00;5.47;;;27.30;56.60;;;;;;5075451;28;20253;-46
2023/06/11 04:50:22;;;;;;;5.33;4.80;;;27.30;56.40;;;;;;5093346;28;20258;-47
2023/06/11 04:52:56;;;;;;;6.50;4.70;;;27.30;56.40;;;;;;5087126;28;20589;-46
2023/06/11 04:55:27;;;;;;;5.40;4.97;;;27.30;56.40;;;;;;5084445;28;20197;-45
2023/06/11 04:58:01;;;;;;;5.93;5.43;;;27.30;56.30;;;;;;5092388;28;20535;-45
2023/06/11 05:00:30;;;;;;;5.60;5.10;;;27.30;56.20;;;;;;5091756;28;20189;-45
2023/06/11 05:03:03;;;;;;;6.53;5.37;;;27.30;56.20;;;;;;5092057;28;20422;-44
2023/06/11 05:05:33;;;;;;;5.30;4.90;;;27.30;56.10;;;;;;5090158;28;20266;-46
2023/06/11 05:08:03;;;;;;;5.70;5.20;;;27.30;56.00;;;;;;5092137;28;20193;-48
2023/06/11 05:10:33;;;;;;;5.70;5.20;;;27.30;56.00;;;;;;5089998;28;20197;-46
2023/06/11 05:13:05;;;;;;;6.83;4.70;;;27.30;56.00;;;;;;5091685;28;20548;-45
2023/06/11 05:15:36;;;;;;;5.50;5.00;;;27.30;55.90;;;;;;5086676;28;20190;-45
2023/06/11 05:18:06;;;;;;;5.97;5.47;;;27.30;55.80;;;;;;5089569;28;20578;-45
2023/06/11 05:20:36;;;;;;;7.63;5.90;;;27.30;55.80;;;;;;5091351;28;20192;-45
2023/06/11 05:23:10;;;;;;;6.50;5.20;;;27.30;55.80;;;;;;5092024;28;20189;-45
2023/06/11 05:25:50;;;;;;;5.80;5.30;;;27.30;55.70;;;;;;5078910;28;20244;-45
2023/06/11 05:28:21;;;;;;;6.30;5.70;;;27.30;55.70;;;;;;5093467;28;20204;-46
2023/06/11 05:30:52;;;;;;;7.00;5.77;;;27.20;55.40;;;;;;5088950;28;20217;-45
2023/06/11 05:33:26;;;;;;;5.77;5.27;;;27.20;55.40;;;;;;5079352;28;20193;-45
2023/06/11 05:35:56;;;;;;;6.00;5.50;;;27.20;55.30;;;;;;5084145;28;20754;-45
2023/06/11 05:38:28;;;;;;;5.87;5.27;;;27.20;55.10;;;;;;5082110;28;20438;-45
2023/06/11 05:41:01;;;;;;;6.53;5.93;;;27.20;55.00;;;;;;5076846;28;20222;-45
2023/06/11 05:43:32;;;;;;;7.73;6.20;;;27.20;55.00;;;;;;5074519;28;20246;-45
2023/06/11 05:46:01;;;;;;;8.13;5.57;;;27.20;54.90;;;;;;5078442;28;20212;-45
2023/06/11 05:48:30;;;;;;;12.37;6.00;;;27.20;54.90;;;;;;5059791;28;20204;-45
2023/06/11 05:50:59;;;;;;;7.47;6.40;;;27.20;55.00;;;;;;5077956;28;20188;-45
2023/06/11 05:53:28;;;;;;;10.40;6.53;;;27.20;54.50;;;;;;5073861;28;20210;-45
2023/06/11 05:56:04;;;;;;;6.60;6.00;;;27.20;54.30;;;;;;5066767;28;20228;-46
2023/06/11 05:58:36;;;;;;;7.40;6.60;;;27.20;54.10;;;;;;5078981;28;20205;-44
2023/06/11 06:01:09;;;;;;;7.40;6.50;;;27.20;53.90;;;;;;5051357;28;20211;-44
2023/06/11 06:03:42;;;;;;;8.13;6.43;;;27.20;54.10;;;;;;5096838;28;20623;-45
2023/06/11 06:06:11;;;;;;;7.60;6.53;;;27.20;54.10;;;;;;5082367;28;20316;-44
2023/06/11 06:08:42;;;;;;;6.70;6.10;;;27.20;53.90;;;;;;5070197;28;20263;-46
2023/06/11 06:11:17;;;;;;;14.40;7.60;;;27.20;53.80;;;;;;5080760;28;20213;-45
2023/06/11 06:13:47;;;;;;;7.43;6.63;;;27.20;54.10;;;;;;5082793;28;20196;-45
2023/06/11 06:16:19;;;;;;;7.67;6.70;;;27.20;54.10;;;;;;5086653;28;20298;-44
2023/06/11 06:18:54;;;;;;;9.27;6.80;;;27.20;53.70;;;;;;5066314;28;20214;-45
2023/06/11 06:21:25;;;;;;;10.10;6.93;;;27.20;53.30;;;;;;5073049;28;20193;-45
2023/06/11 06:23:57;;;;;;;7.93;6.77;;;27.20;53.30;;;;;;5089708;28;20283;-45
2023/06/11 06:26:28;;;;;;;7.03;6.27;;;27.20;53.90;;;;;;5083520;28;20241;-45
2023/06/11 06:28:58;;;;;;;7.23;6.60;;;27.20;54.70;;;;;;5035813;28;21321;-44
2023/06/11 06:31:30;;;;;;;8.03;6.33;;;27.20;54.70;;;;;;5074151;28;20216;-45
2023/06/11 06:34:04;;;;;;;6.60;5.87;;;27.20;54.60;;;;;;5084018;28;20667;-45
2023/06/11 06:36:37;;;;;;;6.93;6.23;;;27.20;55.80;;;;;;5065351;28;20213;-46
2023/06/11 06:39:09;;;;;;;7.07;5.87;;;26.90;50.00;;;;;;5077692;28;20499;-46
2023/06/11 06:41:41;;;;;;;6.20;5.67;;;26.60;47.40;;;;;;5081909;28;20574;-45
2023/06/11 06:44:13;;;;;;;6.93;5.53;;;26.30;46.10;;;;;;5077325;28;20208;-45
2023/06/11 06:46:42;;;;;;;5.90;5.40;;;26.00;45.40;;;;;;5079052;28;20237;-45
2023/06/11 06:49:13;;;;;;;5.90;5.40;;;25.80;45.00;;;;;;5070946;28;20193;-45
2023/06/11 06:51:43;;;;;;;5.50;5.00;;;25.60;45.30;;;;;;5077445;28;20197;-45
2023/06/11 06:54:15;;;;;;;5.83;5.23;;;25.50;45.10;;;;;;5077598;28;20817;-45
2023/06/11 06:56:47;;;;;;;5.03;4.63;;;25.40;45.00;;;;;;5078308;28;20199;-45
2023/06/11 06:59:17;;;;;;;5.83;5.13;;;25.30;45.00;;;;;;5081953;28;20519;-45
2023/06/11 07:01:48;;;;;;;6.27;5.07;;;25.20;45.10;;;;;;5078154;28;20654;-45
2023/06/11 07:04:25;;;;;;;5.77;5.17;;;25.20;45.10;;;;;;5077778;28;20197;-46
2023/06/11 07:07:00;;;;;;;6.33;5.73;;;25.00;44.70;;;;;;5077417;28;20229;-45
2023/06/11 07:09:32;;;;;;;5.07;4.67;;;25.00;45.30;;;;;;5089290;28;20209;-45
2023/06/11 07:12:00;;;;;;;6.00;5.40;;;24.90;45.20;;;;;;5081038;28;20831;-45
2023/06/11 07:14:32;;;;;;;5.00;4.60;;;24.90;45.00;;;;;;5072858;28;20193;-44
2023/06/11 07:17:01;;;;;;;5.37;4.90;;;24.80;45.00;;;;;;5081251;28;20219;-45
2023/06/11 07:19:33;;;;;;;5.20;4.80;;;24.70;45.00;;;;;;5089066;28;20432;-46
2023/06/11 07:22:13;;;;;;;5.53;4.83;;;24.60;45.00;;;;;;5089657;28;20511;-44
2023/06/11 07:24:48;;;;;;;5.10;4.70;;;24.60;44.90;;;;;;5057503;28;20189;-45
2023/06/11 07:27:17;;;;;;;5.13;4.73;;;24.50;45.00;;;;;;5070279;28;20245;-45
2023/06/11 07:29:53;;;;;;;5.27;4.87;;;24.40;45.10;;;;;;5077066;28;20204;-46
2023/06/11 07:32:22;;;;;;;4.87;4.47;;;24.40;45.10;;;;;;5072255;28;20198;-47
2023/06/11 07:34:52;;;;;;;4.70;4.30;;;24.30;45.00;;;;;;5077330;28;20196;-46
2023/06/11 07:37:23;;;;;;;5.23;4.83;;;24.20;44.30;;;;;;5074125;28;20531;-47
2023/06/11 07:40:05;;;;;;;5.83;5.13;;;24.10;45.10;;;;;;5083802;28;20208;-46
2023/06/11 07:42:46;;;;;;;5.73;5.23;;;24.20;51.70;;;;;;5075655;28;20579;-45
2023/06/11 07:45:16;;;;;;;5.80;5.30;;;24.40;55.70;;;;;;5085662;28;20933;-46
2023/06/11 07:47:49;;;;;;;4.97;4.57;;;24.50;55.30;;;;;;5090304;28;20240;-45
2023/06/11 07:50:20;;;;;;;6.33;4.80;;;24.40;49.50;;;;;;5088385;28;20197;-45
2023/06/11 07:52:54;;;;;;;6.13;4.53;;;24.30;47.20;;;;;;5064173;28;20284;-45
2023/06/11 07:55:25;;;;;;;5.37;4.87;;;24.20;48.80;;;;;;5069154;28;20212;-45
2023/06/11 07:57:56;;;;;;;5.40;5.00;;;24.30;54.30;;;;;;5087073;28;20193;-45
2023/06/11 08:00:28;;;;;;;5.57;5.10;;;24.50;57.40;;;;;;5073450;28;20204;-44
2023/06/11 08:02:59;;;;;;;5.30;4.90;;;24.70;55.10;;;;;;5074256;28;20288;-47
2023/06/11 08:05:30;;;;;;;4.63;4.23;;;24.60;49.40;;;;;;5078863;28;20637;-45
2023/06/11 08:08:01;;;;;;;5.83;5.33;;;24.30;48.20;;;;;;5088693;28;20236;-45
2023/06/11 08:10:33;;;;;;;5.23;4.83;;;24.20;49.90;;;;;;5078031;28;20802;-45
2023/06/11 08:13:08;;;;;;;5.70;5.20;;;24.20;51.80;;;;;;5085156;28;20231;-45
2023/06/11 08:15:41;;;;;;;5.77;5.27;;;24.40;56.90;;;;;;5085831;28;20220;-45
2023/06/11 08:18:10;;;;;;;6.73;4.87;;;24.60;56.80;;;;;;5077149;28;20216;-45
2023/06/11 08:20:39;;;;;;;6.50;4.90;;;24.60;51.30;;;;;;5066991;28;20232;-45
2023/06/11 08:23:12;;;;;;;5.37;4.87;;;24.50;47.90;;;;;;5074420;28;20185;-45
2023/06/11 08:25:43;;;;;;;5.97;4.53;;;24.40;49.20;;;;;;5082135;28;20195;-45
2023/06/11 08:28:13;;;;;;;4.67;4.27;;;24.40;50.30;;;;;;5077061;28;20217;-45
2023/06/11 08:30:44;;;;;;;4.93;4.43;;;24.40;50.70;;;;;;5079402;28;20689;-45
2023/06/11 08:33:12;;;;;;;5.00;4.60;;;24.40;50.80;;;;;;5086006;28;20517;-45
2023/06/11 08:35:41;;;;;;;6.33;4.30;;;24.40;50.70;;;;;;5053362;28;20197;-44
2023/06/11 08:38:13;;;;;;;4.83;4.43;;;24.40;50.60;;;;;;5079076;28;20196;-45
2023/06/11 08:40:42;;;;;;;5.50;5.00;;;24.50;56.00;;;;;;5071823;28;20280;-45
2023/06/11 08:43:10;;;;;;;6.83;5.10;;;24.70;58.60;;;;;;5056783;28;20569;-45
2023/06/11 08:45:41;;;;;;;5.23;4.30;;;24.80;55.30;;;;;;5072218;28;20190;-45
2023/06/11 08:48:13;;;;;;;5.03;4.63;;;24.70;50.00;;;;;;5089842;28;20221;-45
2023/06/11 08:50:50;;;;;;;5.67;5.17;;;24.50;49.40;;;;;;5059930;28;20190;-45
2023/06/11 08:53:28;;;;;;;5.57;5.07;;;24.60;55.20;;;;;;5074130;28;20598;-45
2023/06/11 08:56:00;;;;;;;5.40;4.30;;;24.80;57.70;;;;;;5076197;28;20224;-45
2023/06/11 08:58:35;;;;;;;4.83;4.30;;;24.80;53.20;;;;;;5078388;28;20205;-45
2023/06/11 09:01:11;;;;;;;5.03;4.60;;;24.60;48.60;;;;;;5076262;28;20197;-45
2023/06/11 09:03:41;;;;;;;5.10;4.67;;;24.60;51.90;;;;;;5071840;28;20198;-45
2023/06/11 09:06:13;;;;;;;5.03;4.63;;;24.70;56.50;;;;;;5065487;28;20205;-45
2023/06/11 09:09:08;;;;;;;5.20;4.77;;;24.90;58.20;;;;;;5069227;28;20276;-45
2023/06/11 09:11:47;;;;;;;4.70;4.30;;;24.80;51.60;;;;;;5059224;28;20200;-46
2023/06/11 09:14:19;;;;;;;5.07;4.67;;;24.60;48.60;;;;;;5076697;28;20186;-44
2023/06/11 09:16:50;;;;;;;5.77;5.33;;;24.60;54.00;;;;;;5080074;28;20190;-44
2023/06/11 09:19:22;;;;;;;5.70;5.20;;;24.70;57.30;;;;;;5074921;28;20595;-45
2023/06/11 09:22:00;;;;;;;4.70;4.30;;;24.90;56.50;;;;;;5073053;28;20225;-45
2023/06/11 09:24:34;;;;;;;4.77;4.37;;;24.70;50.70;;;;;;5087282;28;20599;-45
2023/06/11 09:27:10;;;;;;;5.20;4.70;;;24.50;49.20;;;;;;5072006;28;20380;-45
2023/06/11 09:29:46;;;;;;;5.43;5.03;;;24.60;55.50;;;;;;5075608;28;20200;-45
2023/06/11 09:32:18;;;;;;;4.83;4.40;;;24.80;58.50;;;;;;5071247;28;20204;-45
2023/06/11 09:35:02;;;;;;;5.43;4.50;;;24.90;54.60;;;;;;5078108;28;20239;-45
2023/06/11 09:37:43;;;;;;;4.70;4.30;;;24.70;50.00;;;;;;5079254;28;20213;-45
2023/06/11 09:40:18;;;;;;;4.83;4.43;;;24.60;52.40;;;;;;5073036;28;20197;-44
2023/06/11 09:42:48;;;;;;;4.93;4.53;;;24.80;57.20;;;;;;5062392;28;20235;-44
2023/06/11 09:45:21;;;;;;;4.67;4.27;;;24.90;58.40;;;;;;5070643;28;20203;-45
2023/06/11 09:47:52;;;;;;;4.70;4.30;;;24.90;52.30;;;;;;5071611;28;20221;-45
2023/06/11 09:50:21;;;;;;;4.97;4.57;;;24.70;49.30;;;;;;5085883;28;20193;-46
2023/06/11 09:52:51;;;;;;;4.83;4.43;;;24.70;54.40;;;;;;5068607;28;20209;-45
2023/06/11 09:55:21;;;;;;;5.00;4.60;;;24.90;57.90;;;;;;5039727;28;20251;-45
2023/06/11 09:57:54;;;;;;;5.10;4.60;;;25.00;56.20;;;;;;5071692;28;20201;-45
2023/06/11 10:00:27;;;;;;;4.20;3.90;;;24.80;50.60;;;;;;5076180;28;20710;-44
2023/06/11 10:02:58;;;;;;;4.77;4.37;;;24.60;50.30;;;;;;5080241;28;20291;-46
2023/06/11 10:05:32;;;;;;;5.27;4.30;;;24.80;56.50;;;;;;5080110;28;20219;-45
2023/06/11 10:08:26;;;;;;;5.00;4.60;;;24.90;58.60;;;;;;5048899;28;20229;-45
2023/06/11 10:11:04;;;;;;;4.23;3.87;;;25.00;52.90;;;;;;5059341;28;20205;-45
2023/06/11 10:13:34;;;;;;;4.77;4.37;;;24.80;49.30;;;;;;5074967;28;20186;-45
2023/06/11 10:16:07;;;;;;;5.60;5.10;;;24.70;53.90;;;;;;5076163;28;20193;-45
2023/06/11 10:18:37;;;;;;;4.83;4.37;;;24.90;58.10;;;;;;5066337;28;20620;-45
2023/06/11 10:21:08;;;;;;;4.47;4.07;;;25.00;57.60;;;;;;5067302;28;20221;-45
2023/06/11 10:23:42;;;;;;;5.70;3.77;;;24.90;51.80;;;;;;5046552;28;20545;-45
2023/06/11 10:26:13;;;;;;;4.40;4.00;;;24.80;49.20;;;;;;5076243;28;20245;-46
2023/06/11 10:28:49;;;;;;;5.70;4.40;;;24.90;56.50;;;;;;5067140;28;20201;-45
2023/06/11 10:31:45;;;;;;;5.10;4.27;;;25.00;58.00;;;;;;5067400;28;20196;-45
2023/06/11 10:34:15;;;;;;;4.10;3.70;;;25.00;52.70;;;;;;5083806;28;20201;-44
2023/06/11 10:36:45;;;;;;;4.07;3.67;;;24.80;49.30;;;;;;5082196;28;20230;-45
2023/06/11 10:39:25;;;;;;;4.33;3.93;;;24.80;53.30;;;;;;5056854;28;20200;-46
2023/06/11 10:42:01;;;;;;;4.23;3.83;;;25.00;53.30;;;;;;5065278;28;20225;-45
2023/06/11 10:44:30;;;;;;;3.83;3.53;;;25.20;53.20;;;;;;5053022;28;20182;-45
2023/06/11 10:47:03;;;;;;;5.10;3.30;;;25.30;53.00;;;;;;5073367;28;20201;-45
2023/06/11 10:49:34;;;;;;;4.47;4.07;;;25.40;52.90;;;;;;5085589;28;20196;-46
2023/06/11 10:52:07;;;;;;;4.07;3.77;;;25.60;52.90;;;;;;5068127;28;20292;-45
2023/06/11 10:54:41;;;;;;;3.63;3.33;;;25.60;52.90;;;;;;5066298;28;20232;-45
2023/06/11 10:57:13;;;;;;;3.77;3.47;;;25.70;52.80;;;;;;5081443;28;20201;-46
2023/06/11 10:59:49;;;;;;;11.27;3.80;;;25.80;53.40;;;;;;5079822;28;20185;-45
2023/06/11 11:02:26;;;;;;;5.13;3.60;;;25.90;53.20;;;;;;5076553;28;20232;-46
2023/06/11 11:05:00;;;;;;;3.90;3.60;;;26.00;53.10;;;;;;5081410;28;20212;-45
2023/06/11 11:07:33;;;;;;;4.33;3.87;;;26.00;53.00;;;;;;5089586;28;20213;-52
2023/06/11 11:10:10;;;;;;;3.67;3.37;;;26.10;53.10;;;;;;5094194;28;20233;-45
2023/06/11 11:12:48;;;;;;;4.43;3.63;;;26.10;53.10;;;;;;5080092;28;20197;-45
2023/06/11 11:15:19;;;;;;;4.97;3.90;;;26.20;53.00;;;;;;5065351;28;20221;-44
2023/06/11 11:17:48;;;;;;;4.00;3.60;;;26.20;52.90;;;;;;5072727;28;20247;-46
2023/06/11 11:20:20;;;;;;;5.17;4.03;;;26.30;52.90;;;;;;5080437;28;20196;-44
2023/06/11 11:22:57;;;;;;;4.13;3.73;;;26.30;52.60;;;;;;5068753;28;20190;-44
2023/06/11 11:25:32;;;;;;;4.23;3.80;;;26.40;52.70;;;;;;5076296;28;20681;-45
2023/06/11 11:28:35;;;;;;;4.50;3.90;;;26.50;52.70;;;;;;5064839;28;20212;-44
2023/06/11 11:31:10;;;;;;;4.10;3.80;;;26.50;52.60;;;;;;5081485;28;20213;-45
2023/06/11 11:33:41;;;;;;;4.37;3.93;;;26.50;52.50;;;;;;5069489;28;20185;-44
2023/06/11 11:36:13;;;;;;;4.50;3.60;;;26.60;52.60;;;;;;5045082;28;20193;-44
2023/06/11 11:38:43;;;;;;;4.30;4.00;;;26.60;52.50;;;;;;5070665;28;20204;-45
2023/06/11 11:41:10;;;;;;;6.87;3.70;;;26.60;52.50;;;;;;5077294;28;20225;-44
2023/06/11 11:43:41;;;;;;;3.87;3.50;;;26.70;52.60;;;;;;5077174;28;20196;-45
2023/06/11 11:46:20;;;;;;;5.30;3.70;;;26.70;52.60;;;;;;5062244;28;20186;-44
2023/06/11 11:48:57;;;;;;;5.73;3.80;;;26.80;52.60;;;;;;5066019;28;20685;-44
2023/06/11 11:51:29;;;;;;;4.43;3.80;;;26.80;52.70;;;;;;5069974;28;20599;-46
2023/06/11 11:54:00;;;;;;;4.73;3.83;;;26.80;52.50;;;;;;5066891;28;20213;-44
2023/06/11 11:56:35;;;;;;;4.40;4.00;;;26.90;52.70;;;;;;5073891;28;20189;-44
2023/06/11 11:59:21;;;;;;;3.97;3.67;;;26.90;52.50;;;;;;5069790;28;20538;-46
2023/06/11 12:02:01;;;;;;;4.23;3.83;;;26.90;52.40;;;;;;5058636;28;20212;-47
2023/06/11 12:04:47;;;;;;;4.37;3.67;;;26.90;52.30;;;;;;5076703;28;20208;-47
2023/06/11 12:07:22;;;;;;;3.90;3.60;;;27.00;52.40;;;;;;5070909;28;20205;-45
2023/06/11 12:09:53;;;;;;;4.13;3.83;;;27.00;52.40;;;;;;5078616;28;20618;-46
2023/06/11 12:12:23;;;;;;;4.70;4.30;;;27.00;52.20;;;;;;5088002;28;20197;-45
2023/06/11 12:14:56;;;;;;;4.00;3.60;;;27.10;52.30;;;;;;5051054;28;20281;-45
2023/06/11 12:17:25;;;;;;;5.23;3.80;;;27.10;52.30;;;;;;5083107;28;20572;-44
2023/06/11 12:19:56;;;;;;;4.10;3.77;;;27.10;52.20;;;;;;5068677;28;20208;-45
2023/06/11 12:22:28;;;;;;;4.63;4.17;;;27.20;52.50;;;;;;5072869;28;20196;-46
2023/06/11 12:24:57;;;;;;;4.83;3.80;;;27.20;52.40;;;;;;5076188;28;20193;-46
2023/06/11 12:27:26;;;;;;;4.50;4.10;;;27.20;52.50;;;;;;5074728;28;20268;-45
2023/06/11 12:29:55;;;;;;;4.33;3.93;;;27.20;52.40;;;;;;5049579;28;20196;-46
2023/06/11 12:32:42;;;;;;;4.07;3.77;;;27.30;52.30;;;;;;5086434;28;20208;-46
2023/06/11 12:35:19;;;;;;;5.20;3.63;;;27.30;52.20;;;;;;5078551;28;20335;-44
2023/06/11 12:37:50;;;;;;;4.00;3.70;;;27.30;53.00;;;;;;5081718;28;20834;-45
2023/06/11 12:40:23;;;;;;;5.23;4.40;;;27.40;52.40;;;;;;5088024;28;20201;-43
2023/06/11 12:42:59;;;;;;;4.53;3.80;;;27.40;52.50;;;;;;5060928;28;20646;-45
2023/06/11 12:45:37;;;;;;;4.70;4.10;;;27.40;52.20;;;;;;5078916;28;20206;-45
2023/06/11 12:48:07;;;;;;;4.67;4.00;;;27.50;52.40;;;;;;5072381;28;20566;-45
2023/06/11 12:50:39;;;;;;;4.73;3.80;;;27.50;52.30;;;;;;5071306;28;20219;-44
2023/06/11 12:53:16;;;;;;;4.17;3.77;;;27.50;52.30;;;;;;5073972;28;20210;-44
2023/06/11 12:55:50;;;;;;;4.20;3.67;;;27.50;52.10;;;;;;5083044;28;20182;-46
2023/06/11 12:58:21;;;;;;;4.67;4.27;;;27.60;52.20;;;;;;5085885;28;20674;-46
2023/06/11 13:00:52;;;;;;;6.50;4.30;;;27.60;52.20;;;;;;5070224;28;20197;-46
2023/06/11 13:03:22;;;;;;;4.00;3.70;;;27.60;52.20;;;;;;5084776;28;20557;-46
2023/06/11 13:05:52;;;;;;;3.97;3.67;;;27.70;52.00;;;;;;5078516;28;20555;-45
2023/06/11 13:08:22;;;;;;;4.70;4.30;;;27.70;51.80;;;;;;5077478;28;20213;-45
2023/06/11 13:10:54;;;;;;;3.87;3.57;;;27.70;51.80;;;;;;5072770;28;20203;-44
2023/06/11 13:13:24;;;;;;;4.63;4.10;;;27.70;51.80;;;;;;5085559;28;20233;-45
2023/06/11 13:15:51;;;;;;;5.73;3.90;;;27.80;51.80;;;;;;5072664;28;20190;-46
2023/06/11 13:18:27;;;;;;;5.63;3.87;;;27.80;51.70;;;;;;5073563;28;20223;-45